Time;durP1;ratioP1;P1;durP2;ratioP2;P2;SDS_P1;SDS_P2;PMS_P1;PMS_P2;Temp;Humidity;BMP_temperature;BMP_pressure;BME280_temperature;BME280_humidity;BME280_pressure;Samples;Min_cycle;Max_cycle;Signal;HPM_P1;HPM_P2
2023/05/15 00:00:43;;;;;;;5.13;3.67;;;;;;;9.03;100.00;96867.47;5042113;28;20723;-60
2023/05/15 00:03:11;;;;;;;7.18;4.22;;;;;;;9.10;100.00;96872.66;5044911;28;20123;-61
2023/05/15 00:05:38;;;;;;;6.57;3.92;;;;;;;9.03;100.00;96866.66;5050377;28;20041;-60
2023/05/15 00:08:05;;;;;;;5.88;3.80;;;;;;;8.87;100.00;96871.06;5042630;28;20112;-60
2023/05/15 00:10:31;;;;;;;6.18;3.67;;;;;;;8.71;100.00;96860.13;5044322;28;20053;-60
2023/05/15 00:12:58;;;;;;;6.07;3.85;;;;;;;8.73;100.00;96857.16;5040372;28;20046;-60
2023/05/15 00:15:24;;;;;;;7.97;4.65;;;;;;;8.54;100.00;96863.69;5044701;28;20049;-61
2023/05/15 00:17:51;;;;;;;6.60;4.13;;;;;;;8.30;100.00;96861.19;5042099;28;20135;-61
2023/05/15 00:20:18;;;;;;;7.68;4.47;;;;;;;8.29;100.00;96864.16;5047397;28;20057;-60
2023/05/15 00:22:44;;;;;;;7.22;4.00;;;;;;;8.44;100.00;96860.84;5049567;28;20056;-60
2023/05/15 00:25:11;;;;;;;7.22;4.18;;;;;;;8.56;100.00;96861.53;5057657;28;20118;-60
2023/05/15 00:27:37;;;;;;;7.55;4.30;;;;;;;8.69;100.00;96860.34;5050076;28;20037;-61
2023/05/15 00:30:04;;;;;;;6.13;3.92;;;;;;;8.65;100.00;96853.84;5045385;28;20119;-61
2023/05/15 00:32:31;;;;;;;6.93;3.50;;;;;;;8.69;100.00;96859.53;5046059;28;20108;-59
2023/05/15 00:34:58;;;;;;;6.75;3.80;;;;;;;8.75;100.00;96858.53;5050844;28;20048;-60
2023/05/15 00:37:24;;;;;;;6.38;4.60;;;;;;;8.78;100.00;96858.03;5048134;28;20045;-60
2023/05/15 00:39:51;;;;;;;5.75;3.70;;;;;;;8.63;100.00;96850.59;5053745;28;20109;-60
2023/05/15 00:42:18;;;;;;;7.00;4.25;;;;;;;8.50;100.00;96857.13;5043868;28;20475;-61
2023/05/15 00:44:45;;;;;;;7.18;4.38;;;;;;;8.44;100.00;96853.56;5056010;28;20135;-60
2023/05/15 00:47:13;;;;;;;7.05;4.50;;;;;;;8.58;100.00;96853.19;5053832;28;20507;-60
2023/05/15 00:49:41;;;;;;;6.20;4.18;;;;;;;8.68;100.00;96853.34;5047881;28;20049;-61
2023/05/15 00:52:08;;;;;;;6.32;3.97;;;;;;;8.84;100.00;96850.78;5039033;28;20408;-61
2023/05/15 00:54:34;;;;;;;10.20;4.47;;;;;;;8.85;100.00;96847.03;5048099;28;20091;-60
2023/05/15 00:57:05;;;;;;;7.97;4.43;;;;;;;8.76;100.00;96852.06;5049092;28;20083;-61
2023/05/15 00:59:32;;;;;;;7.47;4.47;;;;;;;8.64;100.00;96849.50;5044455;28;20507;-60
2023/05/15 01:01:58;;;;;;;8.02;4.75;;;;;;;8.61;100.00;96843.78;5045378;28;20072;-60
2023/05/15 01:04:25;;;;;;;8.75;4.72;;;;;;;8.62;100.00;96845.44;5045612;28;20099;-59
2023/05/15 01:06:52;;;;;;;6.68;4.13;;;;;;;8.66;100.00;96843.88;5044043;28;20644;-60
2023/05/15 01:09:22;;;;;;;6.20;4.35;;;;;;;8.69;100.00;96843.34;5047083;28;20052;-61
2023/05/15 01:11:53;;;;;;;6.15;3.63;;;;;;;8.69;100.00;96838.78;5042941;28;20156;-61
2023/05/15 01:14:19;;;;;;;6.22;4.20;;;;;;;8.78;100.00;96846.41;5047494;28;20531;-60
2023/05/15 01:16:46;;;;;;;7.45;4.38;;;;;;;8.89;100.00;96850.88;5044008;28;20049;-60
2023/05/15 01:19:13;;;;;;;5.82;3.85;;;;;;;8.98;100.00;96852.03;5043309;28;20653;-60
2023/05/15 01:22:31;;;;;;;5.35;3.78;;;;;;;9.13;100.00;96853.25;5043885;28;20598;-60
2023/05/15 01:25:25;;;;;;;5.72;3.50;;;;;;;9.22;100.00;96849.00;5034874;28;20049;-60
2023/05/15 01:27:55;;;;;;;5.65;3.55;;;;;;;9.38;100.00;96849.16;5044926;28;20079;-60
2023/05/15 01:30:33;;;;;;;6.75;4.03;;;;;;;9.37;100.00;96844.84;5033579;28;20053;-61
2023/05/15 01:33:27;;;;;;;5.95;3.67;;;;;;;9.34;100.00;96848.88;5043629;28;20028;-60
2023/05/15 01:36:15;;;;;;;6.15;3.85;;;;;;;9.33;100.00;96844.50;5041181;28;20041;-59
2023/05/15 01:38:47;;;;;;;6.07;3.78;;;;;;;9.46;100.00;96851.38;5043592;28;20052;-59
2023/05/15 01:41:21;;;;;;;6.13;3.53;;;;;;;9.53;100.00;96850.34;5045301;28;20048;-60
2023/05/15 01:43:54;;;;;;;7.57;4.00;;;;;;;9.57;100.00;96848.75;5052298;28;20107;-60
2023/05/15 01:46:22;;;;;;;5.80;3.72;;;;;;;9.54;100.00;96854.69;5057484;28;20048;-60
2023/05/15 01:48:51;;;;;;;5.95;3.63;;;;;;;9.57;100.00;96851.47;5047177;28;20040;-60
2023/05/15 01:51:18;;;;;;;6.45;4.10;;;;;;;9.61;100.00;96852.56;5045746;28;20052;-60
2023/05/15 01:53:45;;;;;;;6.63;4.28;;;;;;;9.53;100.00;96853.03;5045518;28;20037;-60
2023/05/15 01:56:14;;;;;;;6.00;3.95;;;;;;;9.32;100.00;96850.19;5051647;28;20181;-60
2023/05/15 01:58:42;;;;;;;5.40;3.65;;;;;;;9.27;100.00;96852.81;5048241;28;20049;-60
2023/05/15 02:01:09;;;;;;;6.50;3.88;;;;;;;9.30;100.00;96863.13;5045889;28;20130;-60
2023/05/15 02:03:36;;;;;;;6.30;3.50;;;;;;;9.15;100.00;96853.00;5049903;28;20037;-60
2023/05/15 02:06:04;;;;;;;6.20;4.45;;;;;;;9.21;100.00;96849.25;5053327;28;20115;-60
2023/05/15 02:08:32;;;;;;;6.05;3.40;;;;;;;9.21;100.00;96847.38;5056334;28;20064;-60
2023/05/15 02:11:00;;;;;;;5.80;3.53;;;;;;;9.21;100.00;96838.47;5043291;28;20040;-59
2023/05/15 02:13:27;;;;;;;5.22;3.45;;;;;;;9.21;100.00;96846.56;5043626;28;20048;-59
2023/05/15 02:15:54;;;;;;;6.55;3.75;;;;;;;9.24;100.00;96846.88;5046287;28;20074;-59
2023/05/15 02:18:21;;;;;;;6.22;3.75;;;;;;;9.34;100.00;96843.47;5047305;28;20597;-60
2023/05/15 02:20:48;;;;;;;6.85;3.50;;;;;;;9.48;100.00;96841.13;5047402;28;20103;-60
2023/05/15 02:23:14;;;;;;;6.55;3.28;;;;;;;9.59;100.00;96846.63;5048213;28;20041;-60
2023/05/15 02:26:08;;;;;;;7.35;3.50;;;;;;;9.74;100.00;96838.59;5046978;28;20041;-60
2023/05/15 02:28:42;;;;;;;5.43;3.50;;;;;;;9.91;100.00;96843.06;5041147;28;20065;-61
2023/05/15 02:31:21;;;;;;;6.40;3.25;;;;;;;9.96;100.00;96835.00;5045497;28;20067;-61
2023/05/15 02:34:08;;;;;;;5.45;3.70;;;;;;;10.01;100.00;96842.31;5047529;28;20642;-61
2023/05/15 02:36:39;;;;;;;5.75;3.63;;;;;;;10.02;100.00;96841.22;5045559;28;20047;-62
2023/05/15 02:39:06;;;;;;;6.57;3.95;;;;;;;10.07;100.00;96843.16;5042732;28;20043;-61
2023/05/15 02:41:35;;;;;;;7.40;3.92;;;;;;;10.08;100.00;96837.50;5047337;28;20528;-61
2023/05/15 02:44:03;;;;;;;5.78;3.65;;;;;;;10.12;100.00;96843.19;5047120;28;20067;-62
2023/05/15 02:46:31;;;;;;;7.07;4.05;;;;;;;10.19;100.00;96845.66;5049593;28;20512;-61
2023/05/15 02:48:58;;;;;;;6.07;4.00;;;;;;;10.26;100.00;96838.94;5048492;28;20032;-60
2023/05/15 02:51:24;;;;;;;8.75;4.45;;;;;;;10.22;100.00;96837.84;5049792;28;20040;-60
2023/05/15 02:53:51;;;;;;;5.68;3.95;;;;;;;10.24;100.00;96841.09;5038302;28;20140;-60
2023/05/15 02:56:17;;;;;;;5.82;4.00;;;;;;;10.27;100.00;96845.97;5047789;28;20604;-60
2023/05/15 02:58:44;;;;;;;8.18;4.22;;;;;;;10.27;100.00;96843.28;5052415;28;20052;-61
2023/05/15 03:01:11;;;;;;;6.65;4.25;;;;;;;10.27;100.00;96845.97;5055308;28;20109;-60
2023/05/15 03:03:38;;;;;;;6.82;4.50;;;;;;;10.27;100.00;96845.16;5049547;28;20443;-60
2023/05/15 03:06:05;;;;;;;7.43;4.90;;;;;;;10.32;100.00;96847.06;5050220;28;20052;-61
2023/05/15 03:08:31;;;;;;;6.75;4.22;;;;;;;10.34;100.00;96844.91;5044324;28;20048;-60
2023/05/15 03:10:58;;;;;;;6.95;4.47;;;;;;;10.28;100.00;96844.06;5044670;28;20048;-60
2023/05/15 03:13:24;;;;;;;8.25;4.60;;;;;;;10.28;100.00;96844.88;5045058;28;20052;-61
2023/05/15 03:15:51;;;;;;;6.32;4.13;;;;;;;10.29;100.00;96840.31;5046003;28;20106;-61
2023/05/15 03:18:18;;;;;;;7.70;4.68;;;;;;;10.27;100.00;96845.97;5052238;28;20041;-61
2023/05/15 03:20:47;;;;;;;7.80;4.80;;;;;;;10.31;100.00;96842.75;5045078;28;20124;-61
2023/05/15 03:23:14;;;;;;;6.60;4.70;;;;;;;10.31;100.00;96842.75;5041654;28;20045;-60
2023/05/15 03:25:40;;;;;;;6.60;3.92;;;;;;;10.29;100.00;96840.31;5016204;28;20131;-61
2023/05/15 03:28:07;;;;;;;7.05;4.47;;;;;;;10.30;100.00;96844.63;5014166;28;20060;-61
2023/05/15 03:30:33;;;;;;;6.90;4.43;;;;;;;10.33;100.00;96843.28;5041968;28;20128;-60
2023/05/15 03:33:02;;;;;;;8.02;4.50;;;;;;;10.28;100.00;96842.19;5051613;28;20056;-61
2023/05/15 03:35:31;;;;;;;7.05;4.82;;;;;;;10.18;100.00;96844.03;5043703;28;20055;-61
2023/05/15 03:37:57;;;;;;;7.90;4.95;;;;;;;10.23;100.00;96838.63;5048025;28;20036;-60
2023/05/15 03:40:24;;;;;;;6.05;4.32;;;;;;;10.25;100.00;96831.88;5037992;28;20508;-61
2023/05/15 03:42:52;;;;;;;7.05;4.25;;;;;;;10.30;100.00;96830.28;5046967;28;20071;-62
2023/05/15 03:45:19;;;;;;;6.57;4.35;;;;;;;10.31;100.00;96837.34;5042020;28;20046;-61
2023/05/15 03:47:47;;;;;;;6.53;4.47;;;;;;;10.25;100.00;96837.28;5046008;28;20094;-60
2023/05/15 03:50:14;;;;;;;6.10;4.18;;;;;;;10.27;100.00;96840.56;5048119;28;20041;-62
2023/05/15 03:52:41;;;;;;;6.78;4.57;;;;;;;10.28;100.00;96834.06;5039270;28;20049;-61
2023/05/15 03:55:08;;;;;;;8.52;5.00;;;;;;;10.33;100.00;96836.00;5040780;28;20118;-61
2023/05/15 03:57:35;;;;;;;8.00;5.10;;;;;;;10.37;100.00;96834.38;5040771;28;20076;-61
2023/05/15 04:00:06;;;;;;;7.40;4.57;;;;;;;10.43;100.00;96831.69;5049663;28;20930;-61
2023/05/15 04:02:38;;;;;;;9.88;4.88;;;;;;;10.51;100.00;96834.72;5044523;28;20512;-61
2023/05/15 04:05:05;;;;;;;7.45;4.60;;;;;;;10.52;100.00;96827.44;5046220;28;20081;-61
2023/05/15 04:07:34;;;;;;;6.88;4.50;;;;;;;10.57;100.00;96832.84;5047055;28;20053;-61
2023/05/15 04:10:00;;;;;;;8.43;4.75;;;;;;;10.58;100.00;96833.69;5042617;28;20143;-61
2023/05/15 04:12:32;;;;;;;7.18;4.57;;;;;;;10.63;100.00;96831.00;5045769;28;20051;-60
2023/05/15 04:15:13;;;;;;;9.43;5.07;;;;;;;10.69;100.00;96829.91;5044688;28;20500;-61
2023/05/15 04:17:39;;;;;;;7.88;5.13;;;;;;;10.70;100.00;96841.56;5051595;28;20049;-61
2023/05/15 04:20:07;;;;;;;9.82;4.93;;;;;;;10.77;100.00;96836.72;5051759;28;20044;-62
2023/05/15 04:22:34;;;;;;;6.47;4.40;;;;;;;10.86;100.00;96839.72;5049860;28;20059;-61
2023/05/15 04:25:00;;;;;;;6.30;4.28;;;;;;;10.89;100.00;96844.59;5046839;28;20120;-61
2023/05/15 04:27:27;;;;;;;9.05;5.05;;;;;;;10.91;100.00;96847.88;5045722;28;20516;-61
2023/05/15 04:29:53;;;;;;;6.43;4.68;;;;;;;10.84;100.00;96844.59;5045277;28;20695;-62
2023/05/15 04:32:21;;;;;;;7.28;5.20;;;;;;;10.67;100.00;96845.63;5050646;28;20053;-62
2023/05/15 04:34:47;;;;;;;9.10;5.50;;;;;;;10.70;100.00;96838.84;5046016;28;20045;-61
2023/05/15 04:37:14;;;;;;;7.25;5.05;;;;;;;10.78;100.00;96841.06;5043990;28;20103;-61
2023/05/15 04:39:40;;;;;;;7.47;5.32;;;;;;;10.82;100.00;96847.56;5050416;28;20071;-61
2023/05/15 04:42:07;;;;;;;8.50;5.22;;;;;;;10.80;100.00;96838.91;5040007;28;20111;-61
2023/05/15 04:44:33;;;;;;;7.78;5.50;;;;;;;10.85;100.00;96843.50;5048801;28;20496;-61
2023/05/15 04:47:00;;;;;;;7.47;5.00;;;;;;;10.88;100.00;96837.56;5045398;28;20040;-61
2023/05/15 04:49:26;;;;;;;7.93;5.63;;;;;;;10.93;100.00;96840.28;5054992;28;20801;-61
2023/05/15 04:51:53;;;;;;;7.85;5.25;;;;;;;10.86;100.00;96842.41;5044948;28;20052;-61
2023/05/15 04:54:19;;;;;;;8.00;5.78;;;;;;;10.87;100.00;96849.50;5041909;28;20487;-61
2023/05/15 04:56:46;;;;;;;7.72;5.40;;;;;;;10.77;100.00;96842.94;5045345;28;20064;-61
2023/05/15 04:59:12;;;;;;;8.20;5.55;;;;;;;10.81;100.00;96845.94;5045659;28;20626;-61
2023/05/15 05:01:39;;;;;;;7.88;5.78;;;;;;;10.83;100.00;96840.25;5044968;28;20132;-61
2023/05/15 05:04:05;;;;;;;9.40;5.25;;;;;;;10.80;100.00;96845.13;5043760;28;20037;-61
2023/05/15 05:06:32;;;;;;;9.10;6.32;;;;;;;10.95;100.00;96850.84;5045771;28;20519;-61
2023/05/15 05:08:58;;;;;;;8.90;5.50;;;;;;;10.98;100.00;96840.28;5044112;28;20037;-61
2023/05/15 05:11:25;;;;;;;8.77;6.47;;;;;;;11.00;100.00;96846.25;5041662;28;20797;-61
2023/05/15 05:13:51;;;;;;;8.55;6.15;;;;;;;10.99;100.00;96843.81;5051874;28;20478;-61
2023/05/15 05:16:18;;;;;;;7.20;5.15;;;;;;;11.03;100.00;96842.19;5046574;28;20879;-61
2023/05/15 05:18:44;;;;;;;9.32;5.95;;;;;;;11.08;100.00;96846.78;5042552;28;20474;-61
2023/05/15 05:21:11;;;;;;;8.25;6.05;;;;;;;11.04;100.00;96836.53;5050959;28;20062;-61
2023/05/15 05:23:37;;;;;;;9.25;5.28;;;;;;;11.23;100.00;96844.13;5046149;28;20423;-61
2023/05/15 05:26:04;;;;;;;7.07;5.10;;;;;;;11.43;100.00;96839.81;5048807;28;20123;-61
2023/05/15 05:28:31;;;;;;;8.93;5.93;;;;;;;11.55;100.00;96848.50;5046084;28;20663;-61
2023/05/15 05:30:58;;;;;;;8.88;5.55;;;;;;;11.64;100.00;96839.81;5045001;28;20053;-60
2023/05/15 05:33:24;;;;;;;9.27;5.32;;;;;;;11.76;100.00;96844.97;5042170;28;20053;-61
2023/05/15 05:35:51;;;;;;;6.53;4.43;;;;;;;11.87;100.00;96851.97;5041578;28;20072;-62
2023/05/15 05:38:18;;;;;;;7.47;5.10;;;;;;;11.95;99.71;96848.72;5040606;28;20041;-62
2023/05/15 05:40:44;;;;;;;8.40;5.57;;;;;;;11.84;99.67;96853.34;5044327;28;20075;-62
2023/05/15 05:43:11;;;;;;;8.00;4.60;;;;;;;11.89;99.88;96851.69;5038749;28;20040;-62
2023/05/15 05:45:37;;;;;;;6.38;4.53;;;;;;;11.87;99.60;96860.13;5045152;28;20040;-62
2023/05/15 05:48:04;;;;;;;8.68;5.80;;;;;;;11.93;99.67;96859.03;5041527;28;20045;-63
2023/05/15 05:50:30;;;;;;;7.65;4.65;;;;;;;11.86;99.85;96853.06;5041777;28;20040;-61
2023/05/15 05:52:57;;;;;;;8.50;5.03;;;;;;;11.93;99.27;96856.31;5048426;28;20041;-62
2023/05/15 05:55:23;;;;;;;7.47;4.80;;;;;;;11.96;98.56;96855.78;5041276;28;20069;-59
2023/05/15 05:57:50;;;;;;;8.93;4.53;;;;;;;11.89;98.90;96847.09;5045487;28;20046;-59
2023/05/15 06:00:18;;;;;;;7.07;4.57;;;;;;;11.97;98.43;96851.97;5043385;28;20163;-59
2023/05/15 06:02:44;;;;;;;7.40;4.40;;;;;;;11.99;98.07;96862.56;5039916;28;20055;-60
2023/05/15 06:05:11;;;;;;;7.63;5.10;;;;;;;11.97;97.10;96856.56;5043279;28;20135;-59
2023/05/15 06:07:38;;;;;;;6.47;4.50;;;;;;;12.00;98.00;96856.03;5046037;28;20049;-59
2023/05/15 06:10:08;;;;;;;8.15;4.72;;;;;;;12.10;98.13;96861.47;5042692;28;20060;-59
2023/05/15 06:12:34;;;;;;;7.07;4.47;;;;;;;12.15;97.27;96859.84;5043404;28;20090;-59
2023/05/15 06:15:01;;;;;;;5.90;4.15;;;;;;;12.23;97.22;96853.84;5043328;28;20033;-59
2023/05/15 06:17:27;;;;;;;6.88;4.40;;;;;;;12.30;97.54;96858.97;5042527;28;20519;-60
2023/05/15 06:19:54;;;;;;;7.70;4.35;;;;;;;12.36;97.79;96858.69;5039507;28;20629;-60
2023/05/15 06:22:21;;;;;;;6.43;4.05;;;;;;;12.47;96.56;96862.22;5041377;28;20072;-60
2023/05/15 06:24:47;;;;;;;6.75;3.95;;;;;;;12.53;96.56;96857.53;5040888;28;20041;-60
2023/05/15 06:27:14;;;;;;;7.18;4.35;;;;;;;12.61;95.07;96861.63;5041882;28;20605;-61
2023/05/15 06:29:40;;;;;;;7.90;4.28;;;;;;;12.61;95.06;96856.97;5040716;28;20115;-62
2023/05/15 06:32:07;;;;;;;6.13;3.90;;;;;;;12.81;94.09;96862.59;5044486;28;20057;-62
2023/05/15 06:34:33;;;;;;;6.78;4.20;;;;;;;12.90;93.54;96854.69;5048129;28;20041;-62
2023/05/15 06:37:00;;;;;;;7.60;5.25;;;;;;;12.81;93.20;96857.97;5045362;28;20083;-62
2023/05/15 06:39:26;;;;;;;6.22;4.00;;;;;;;12.92;92.89;96860.63;5037276;28;20064;-62
2023/05/15 06:41:57;;;;;;;5.65;3.38;;;;;;;13.07;93.03;96860.56;5041517;28;20029;-62
2023/05/15 06:44:24;;;;;;;5.10;3.80;;;;;;;13.25;91.95;96866.44;5034232;28;20044;-60
2023/05/15 06:46:51;;;;;;;7.45;4.07;;;;;;;13.28;90.82;96863.16;5042884;28;20115;-60
2023/05/15 06:49:17;;;;;;;5.57;3.53;;;;;;;13.22;91.62;96867.81;5044451;28;20041;-60
2023/05/15 06:51:44;;;;;;;4.88;3.40;;;;;;;13.36;90.69;96869.91;5042575;28;20053;-59
2023/05/15 06:54:11;;;;;;;5.90;3.63;;;;;;;13.47;89.45;96859.75;5054677;28;20041;-61
2023/05/15 06:56:37;;;;;;;6.03;3.67;;;;;;;13.58;88.77;96872.22;5041864;28;20094;-61
2023/05/15 06:59:03;;;;;;;5.80;3.92;;;;;;;13.60;89.36;96872.72;5049072;28;20044;-61
2023/05/15 07:01:30;;;;;;;5.90;3.40;;;;;;;13.72;88.63;96877.00;5037626;28;20524;-60
2023/05/15 07:03:57;;;;;;;6.13;3.60;;;;;;;13.79;88.03;96872.06;5043143;28;20039;-60
2023/05/15 07:06:25;;;;;;;6.53;3.88;;;;;;;13.78;87.72;96873.13;5047592;28;20458;-60
2023/05/15 07:08:51;;;;;;;6.40;4.28;;;;;;;13.75;87.10;96869.06;5031775;28;20047;-61
2023/05/15 07:11:18;;;;;;;6.90;4.03;;;;;;;13.35;88.96;96866.34;5043498;28;20156;-60
2023/05/15 07:13:45;;;;;;;6.43;4.63;;;;;;;13.34;87.70;96870.16;5040633;28;20511;-61
2023/05/15 07:16:11;;;;;;;7.25;4.00;;;;;;;13.56;89.27;96876.31;5043185;28;20048;-60
2023/05/15 07:18:38;;;;;;;6.72;4.40;;;;;;;13.55;89.65;96864.63;5048242;28;20053;-60
2023/05/15 07:21:04;;;;;;;6.68;4.13;;;;;;;13.63;89.95;96866.72;5042619;28;20778;-60
2023/05/15 07:23:31;;;;;;;5.13;3.72;;;;;;;13.65;89.44;96859.09;5033062;28;20049;-60
2023/05/15 07:25:57;;;;;;;5.45;3.60;;;;;;;13.83;89.58;96867.66;5033929;28;20088;-58
2023/05/15 07:28:24;;;;;;;5.50;3.28;;;;;;;13.97;87.85;96865.06;5044955;28;20076;-58
2023/05/15 07:30:51;;;;;;;5.00;3.22;;;;;;;14.03;86.33;96863.13;5043504;28;20057;-58
2023/05/15 07:33:18;;;;;;;5.97;3.40;;;;;;;14.14;85.39;96866.56;5046266;28;20136;-57
2023/05/15 07:35:44;;;;;;;6.47;3.70;;;;;;;14.04;85.63;96864.72;5045590;28;20073;-58
2023/05/15 07:38:11;;;;;;;5.20;3.47;;;;;;;14.12;85.41;96868.75;5049261;28;20412;-57
2023/05/15 07:40:37;;;;;;;5.63;3.30;;;;;;;14.09;86.31;96866.59;5046292;28;20120;-57
2023/05/15 07:43:04;;;;;;;6.50;3.33;;;;;;;14.22;85.55;96865.13;5046285;28;20041;-58
2023/05/15 07:45:30;;;;;;;5.65;2.75;;;;;;;14.17;86.14;96865.97;5048810;28;20044;-61
2023/05/15 07:47:57;;;;;;;4.75;2.90;;;;;;;14.35;81.46;96871.78;5043311;28;20492;-60
2023/05/15 07:50:24;;;;;;;4.47;2.50;;;;;;;14.51;78.74;96865.06;5045876;28;20130;-61
2023/05/15 07:52:51;;;;;;;4.38;2.50;;;;;;;14.70;78.85;96867.84;5045748;28;20063;-61
2023/05/15 07:55:17;;;;;;;4.30;2.88;;;;;;;14.78;77.13;96865.63;5045434;28;20698;-60
2023/05/15 07:57:44;;;;;;;4.68;2.63;;;;;;;14.73;81.31;96868.34;5043221;28;20114;-60
2023/05/15 08:00:11;;;;;;;6.32;3.08;;;;;;;14.73;77.95;96861.00;5051774;28;20404;-60
2023/05/15 08:02:39;;;;;;;5.72;2.55;;;;;;;14.92;76.97;96866.50;5046010;28;20053;-60
2023/05/15 08:05:06;;;;;;;10.00;2.55;;;;;;;15.19;75.23;96858.81;5058594;28;20048;-61
2023/05/15 08:07:33;;;;;;;3.90;2.30;;;;;;;15.33;74.54;96858.84;5045735;28;20049;-60
2023/05/15 08:10:00;;;;;;;4.78;2.85;;;;;;;15.30;74.88;96862.97;5049665;28;20136;-60
2023/05/15 08:12:26;;;;;;;6.10;3.22;;;;;;;15.41;76.29;96858.19;5048938;28;20640;-60
2023/05/15 08:14:54;;;;;;;3.97;2.30;;;;;;;15.46;74.59;96858.13;5044216;28;20827;-60
2023/05/15 08:17:22;;;;;;;5.88;3.00;;;;;;;15.69;71.96;96863.75;5051958;28;20045;-61
2023/05/15 08:19:48;;;;;;;4.30;2.70;;;;;;;15.86;70.57;96862.41;5047689;28;20045;-61
2023/05/15 08:22:15;;;;;;;4.50;2.75;;;;;;;15.99;70.48;96849.91;5041808;28;20045;-60
2023/05/15 08:24:42;;;;;;;4.18;2.70;;;;;;;15.97;72.72;96857.59;5054896;28;20045;-61
2023/05/15 08:27:10;;;;;;;4.30;2.88;;;;;;;15.89;73.78;96864.53;5040602;28;20252;-60
2023/05/15 08:29:37;;;;;;;4.22;2.67;;;;;;;15.90;71.96;96868.06;5043310;28;20124;-60
2023/05/15 08:32:06;;;;;;;5.15;2.40;;;;;;;15.85;71.08;96864.31;5050593;28;20048;-60
2023/05/15 08:34:33;;;;;;;4.03;2.30;;;;;;;15.89;70.59;96867.28;5044216;28;20071;-60
2023/05/15 08:36:59;;;;;;;5.00;2.20;;;;;;;15.89;70.32;96869.19;5044619;28;20476;-60
2023/05/15 08:39:26;;;;;;;3.95;2.22;;;;;;;15.86;71.57;96865.91;5041974;28;20055;-61
2023/05/15 08:42:01;;;;;;;3.70;2.40;;;;;;;15.70;72.87;96868.09;5041026;28;20062;-61
2023/05/15 08:44:29;;;;;;;3.72;2.00;;;;;;;15.89;69.32;96875.47;5044449;28;20057;-61
2023/05/15 08:46:56;;;;;;;4.00;2.13;;;;;;;15.83;69.46;96869.28;5041895;28;20547;-61
2023/05/15 08:49:42;;;;;;;4.30;2.38;;;;;;;15.73;69.87;96867.50;5040995;28;20056;-60
2023/05/15 08:52:09;;;;;;;4.47;2.30;;;;;;;15.79;70.69;96862.78;5041989;28;20041;-60
2023/05/15 08:54:36;;;;;;;4.10;2.70;;;;;;;15.73;70.76;96866.69;5042852;28;20044;-60
2023/05/15 08:57:02;;;;;;;5.50;2.92;;;;;;;15.30;74.06;96856.72;5044121;28;20039;-60
2023/05/15 08:59:29;;;;;;;4.97;3.20;;;;;;;15.64;75.87;96860.31;5048578;28;20094;-61
2023/05/15 09:01:56;;;;;;;4.65;3.13;;;;;;;15.53;74.22;96846.84;5049624;28;20056;-61
2023/05/15 09:04:22;;;;;;;6.55;2.92;;;;;;;15.55;75.19;96854.72;5047051;28;20075;-61
2023/05/15 09:06:49;;;;;;;5.55;2.60;;;;;;;15.48;72.81;96861.34;5015056;28;20055;-61
2023/05/15 09:09:18;;;;;;;5.00;3.10;;;;;;;15.33;74.02;96858.84;5031763;28;20049;-61
2023/05/15 09:11:46;;;;;;;10.07;3.50;;;;;;;15.28;73.39;96848.03;5042754;28;20057;-61
2023/05/15 09:14:13;;;;;;;8.13;3.53;;;;;;;15.32;73.51;96851.78;5053080;28;20463;-59
2023/05/15 09:16:40;;;;;;;4.78;2.92;;;;;;;15.16;72.12;96845.75;5044671;28;20132;-61
2023/05/15 09:19:06;;;;;;;6.07;3.50;;;;;;;15.20;75.18;96842.16;5042880;28;20044;-60
2023/05/15 09:21:33;;;;;;;6.43;3.22;;;;;;;15.31;74.38;96842.81;5051683;28;20049;-60
2023/05/15 09:24:24;;;;;;;5.18;2.70;;;;;;;15.59;72.48;96840.16;5044350;28;20508;-60
2023/05/15 09:27:10;;;;;;;6.60;3.20;;;;;;;15.70;71.26;96845.47;5039239;28;20053;-61
2023/05/15 09:29:37;;;;;;;5.90;3.13;;;;;;;15.83;68.84;96846.63;5045201;28;20044;-60
2023/05/15 09:32:08;;;;;;;5.68;3.00;;;;;;;15.80;70.84;96841.75;5041777;28;20052;-60
2023/05/15 09:34:37;;;;;;;5.10;3.53;;;;;;;15.95;69.15;96832.50;5041147;28;20091;-61
2023/05/15 09:37:05;;;;;;;5.55;3.70;;;;;;;16.02;68.83;96829.38;5041424;28;21203;-60
2023/05/15 09:39:38;;;;;;;4.95;2.60;;;;;;;16.24;65.93;96840.44;5045282;28;20053;-60
2023/05/15 09:42:07;;;;;;;4.15;2.53;;;;;;;16.41;63.90;96835.50;5041117;28;20114;-60
2023/05/15 09:44:34;;;;;;;4.25;2.70;;;;;;;16.46;64.14;96838.13;5037986;28;20601;-61
2023/05/15 09:47:01;;;;;;;4.47;2.60;;;;;;;16.60;66.68;96836.22;5045824;28;20025;-61
2023/05/15 09:49:28;;;;;;;4.65;2.90;;;;;;;16.60;65.94;96835.38;5042937;28;20871;-60
2023/05/15 09:51:58;;;;;;;4.03;2.28;;;;;;;16.43;63.47;96836.00;5039335;28;20045;-61
2023/05/15 09:54:31;;;;;;;8.15;2.97;;;;;;;16.29;65.07;96833.28;5041409;28;20056;-61
2023/05/15 09:57:07;;;;;;;3.95;2.40;;;;;;;16.57;63.09;96823.16;5047799;28;20037;-61
2023/05/15 09:59:33;;;;;;;4.47;2.60;;;;;;;16.69;60.46;96836.28;5036328;28;20107;-61
2023/05/15 10:02:00;;;;;;;4.85;2.75;;;;;;;16.44;64.29;96834.91;5041296;28;20124;-60
2023/05/15 10:04:33;;;;;;;6.93;2.63;;;;;;;16.60;62.06;96827.19;5044551;28;20061;-61
2023/05/15 10:07:00;;;;;;;3.70;2.40;;;;;;;16.59;61.68;96829.09;5044006;28;20111;-60
2023/05/15 10:09:31;;;;;;;4.95;2.50;;;;;;;16.55;63.03;96824.56;5043218;28;20141;-61
2023/05/15 10:11:58;;;;;;;5.10;2.88;;;;;;;16.66;65.15;96820.50;5039827;28;20470;-60
2023/05/15 10:14:25;;;;;;;5.43;2.63;;;;;;;16.73;62.92;96823.63;5045114;28;20074;-60
2023/05/15 10:16:54;;;;;;;4.38;2.83;;;;;;;16.75;61.48;96824.16;5042356;28;20053;-61
2023/05/15 10:19:23;;;;;;;5.95;2.70;;;;;;;16.87;62.45;96814.59;5044400;28;20045;-61
2023/05/15 10:21:52;;;;;;;5.65;2.63;;;;;;;16.75;62.06;96812.38;5046300;28;20647;-60
2023/05/15 10:24:20;;;;;;;4.55;3.08;;;;;;;16.74;63.49;96811.56;5048632;28;20042;-60
2023/05/15 10:26:47;;;;;;;4.25;2.90;;;;;;;16.56;63.88;96812.50;5043272;28;20041;-60
2023/05/15 10:29:17;;;;;;;3.88;2.60;;;;;;;16.50;61.91;96803.59;5047667;28;20087;-60
2023/05/15 10:31:44;;;;;;;5.25;2.63;;;;;;;16.85;62.77;96805.91;5046500;28;20068;-60
2023/05/15 10:34:12;;;;;;;5.40;3.15;;;;;;;16.89;63.65;96801.44;5044580;28;20544;-60
2023/05/15 10:36:38;;;;;;;4.43;2.30;;;;;;;16.73;60.98;96790.03;5040745;28;20048;-61
2023/05/15 10:39:06;;;;;;;5.05;2.65;;;;;;;16.88;60.75;96781.47;5041377;28;20057;-61
2023/05/15 10:41:38;;;;;;;4.85;2.30;;;;;;;17.10;61.98;96779.91;5046068;28;20045;-60
2023/05/15 10:44:05;;;;;;;3.60;2.13;;;;;;;17.35;58.71;96787.81;5044428;28;20056;-61
2023/05/15 10:46:34;;;;;;;4.07;2.47;;;;;;;17.55;58.04;96772.84;5044022;28;20052;-60
2023/05/15 10:49:01;;;;;;;4.05;2.50;;;;;;;17.81;58.16;96781.19;5042176;28;20536;-60
2023/05/15 10:51:31;;;;;;;6.13;2.60;;;;;;;17.68;56.40;96771.13;5050801;28;20048;-61
2023/05/15 10:54:00;;;;;;;3.00;1.95;;;;;;;17.95;59.00;96766.63;5044345;28;20071;-60
2023/05/15 10:56:31;;;;;;;4.18;2.05;;;;;;;18.11;56.41;96764.28;5044495;28;20554;-60
2023/05/15 10:59:05;;;;;;;4.72;2.97;;;;;;;17.73;61.16;96764.72;5040292;28;20363;-61
2023/05/15 11:01:33;;;;;;;4.80;2.40;;;;;;;17.45;63.33;96773.91;5040953;28;20136;-60
2023/05/15 11:04:12;;;;;;;3.60;2.35;;;;;;;17.24;60.44;96776.31;5040069;28;20071;-61
2023/05/15 11:06:43;;;;;;;4.00;2.67;;;;;;;16.60;61.15;96775.25;5049491;28;20041;-60
2023/05/15 11:09:33;;;;;;;3.83;2.42;;;;;;;16.62;61.46;96775.78;5039018;28;20090;-61
2023/05/15 11:12:02;;;;;;;4.60;2.35;;;;;;;16.87;61.94;96763.47;5032849;28;20041;-60
2023/05/15 11:14:36;;;;;;;5.55;2.60;;;;;;;17.30;59.36;96761.41;5038861;28;20036;-60
2023/05/15 11:17:04;;;;;;;3.95;2.70;;;;;;;17.62;56.44;96764.97;5042095;28;20646;-60
2023/05/15 11:19:34;;;;;;;5.57;2.67;;;;;;;17.67;56.23;96764.88;5042581;28;20116;-60
2023/05/15 11:22:18;;;;;;;4.50;2.00;;;;;;;17.64;54.57;96753.72;5040916;28;20048;-60
2023/05/15 11:24:57;;;;;;;3.47;2.10;;;;;;;17.77;53.45;96752.81;5046744;28;20424;-61
2023/05/15 11:27:31;;;;;;;4.70;2.15;;;;;;;17.91;53.01;96750.00;5040809;28;20049;-60
2023/05/15 11:30:16;;;;;;;3.60;2.00;;;;;;;18.05;53.75;96754.56;5039089;28;20500;-61
2023/05/15 11:32:46;;;;;;;6.57;2.40;;;;;;;18.23;52.30;96749.97;5042454;28;20041;-61
2023/05/15 11:35:31;;;;;;;3.47;2.30;;;;;;;18.29;52.78;96740.50;5036930;28;20075;-61
2023/05/15 11:38:11;;;;;;;4.30;2.05;;;;;;;18.47;50.13;96746.03;5038770;28;20048;-60